DISCOVER TRAIL – FAZENDA THALIA 2017

81225cf8d98a41638a471b2d37ff2109636222556658102824

Data:
09/04/2017


Geral Feminino 6Km

Cl.Num.NomeId.FaixaCl.Fx.Sx.EquipeTempo
112FLAVIANE FARIA25F1329-FWS FITNESS 00:40:17
259FABIOLA PAIVA IACTCHAK PRZYBYLSKI31F3039-FMADERO00:42:20
319JESSICA LIMA23F1329-FFOTO700:42:25
455FABIANA DA SILVA SCHMITZ38F30391FPENELOPES RUNNERS REALIZE00:43:43
5156MARIA LUCIA ZANETTI40F40491FCHALLENGE TEAM00:45:03
628REGIANE CAMILA RECHETELO26F13291FLAPATLETAS00:45:50
7164ROSA SOCHODOLAK43F40492FPENELOPES RUNNERS REALIZE00:46:12
824LEILA PATR?CIA BUENO28F13292FPENELOPES RUNNERS REALIZE00:47:01
930SUELI SEBRUX28F13293F00:47:23
1079LUCIANA CRISTINA LOPES32F30392FCHALLENGE TEAM00:48:08
11123ANDREIA AKSENEN41F40493F00:48:44
1292PATRICIA MOTTA37F30393FACADEMIA CIA DA FORMA 00:48:56
13108SUELEN PRESSER34F30394FCERVEJARIA KLEIN 00:49:23
147EMANUELLE PEDROSO SANTA CLARA27F13294FMIX 3 ASSESSORIA 00:49:36
15171SANDRA MARIA VALECHENSKI40F40494FLAPATLETAS00:49:47
16105SARA RODRIGUES DA VEIGA32F30395FPAPALEGUAS00:49:56
178ERITA JOARA PICKLER27F13295FPAPALEGUAS00:49:58
1834ADRIANA ZIMMER36F30396FMEIRELLES ASS. ESP.00:50:27
19161PATRICIA ROGERIA RODRIGUES PASSOS48F40495FKATIA RUSCHEL ASSESSORIA00:50:39
20188JOCELMIRA VLENTIM53F50991FPENELOPES RUNNERS REALIZE00:51:30
2169JULIANA D AGOSTINI31F30397F00:51:55
2218JESSICA FATIMA DO NASCIMENTO FRAGA23F13296FLOS VAGOS RUNNERS00:52:01
2350DEBORA AUGUSTO VIDOLIN31F30398F00:52:16
2445DAIANE RIBEIRO DA SILVA35F30399FCHIMARUN00:53:05
2526MARIANA SALETE KRUPA 19F13297FCHALLENGE TEAM00:53:33
2699REGIELLE SZYMANSKI38F303910FBPM00:54:07
2797QUEILA TEIXEIRA34F303911FCANTINHO DA BICA00:54:37
28175SIMONE CORRADI41F40496FMEIRELLES ASS. ESP.00:54:48
2940ANDREIA MARCHIORI39F303912FCHALLENGE TEAM00:55:04
3096PRISCILA ZIMMER37F303913FMEIRELLES ASS. ESP.00:55:09
3157FABIANA PIECZYKOLAN32F303914FMEIRELLES ASS. ESP.00:55:10
32170SANDRA MARA KINAPE KRUPA40F40497FCHALLENGE TEAM00:55:23
33195SILVANETE SANTOS53F50992FTHE RUNNING MOMS00:55:30
34113THAIS STUQUE RODRIGUES34F303915F00:55:35
3516JESSICA DA ROSA NOVAES25F13298FTEAM TOP RUNNERS00:55:40
36103ROSENI VIGILATO KUROSKI38F303916FCHALLENGE TEAM00:56:01
37144JOSEANE RENDAK DALBERTO45F40498FTHE RUNNING MOMS00:56:13
3831THAYSA LIBERATO28F13299FCHALLENGE TEAM00:56:15
3925LUCIANE MURARO27F132910FMEIRELLES ASSESSORIA00:56:18
4044CRISTIANE RIBAS MACHADO37F303917F00:56:34
4188M?NICA MAZZARO37F303918FTHE RUNNING MOMS00:56:34
42127CINTHIA MATSUBARA41F40499FLOS VAGOS RUNNERS00:56:55
43147KATIA KIMIECK43F404910FARENAVISUAL FOTOGRAFIA00:57:03
4439ANDREIA CARVALHO MACHADO31F303919FWS RUN00:57:30
45143JOELMA RODRIGUES BARBOSA44F404911FCHIMARUN00:58:00
4658FABIANE DIAS ANSELMO30F303920FG5 ESPORTES / LIDERAN?A HOME DESIGN00:58:13
4752ELAINE ESMAELA GON?ALVES DA SILVA32F303921FLAPATLETAS00:58:21
4814HELOISA MARIA IVANOSKI29F132911FCHIMARUN00:58:23
4975KELLY CRISTINA KOTSAN36F303922FMEIRELLES ASS. ESP.00:59:02
5076KIELLY CRISTINA THOM?37F303923FMEIRELLES ASS. ESP.00:59:02
51165ROSANGELA CRISTINA NOVAES BALTHAZAR49F404912F3365-313100:59:48
52182ELIZABETH ULBRICHT GOMES59F50993F01:00:17
53139FLAVIA PEREIRA DE ALMEIDA41F404913FALMEIDA01:00:25
54141GISELE REGIANE DE OLIVEIRA49F404914F01:00:45
556CAROLINA TELLES29F132912FTHE RUNNING MOMS01:01:04
5615IZABEL CRISTINA KLOSOSWKI NASCIMENTO28F132913FPENELOPES RUNNERS REALIZE01:01:31
5733VINICIUS ALMEIDA GOMES DE OLIVEIRA18F132914FPONTO B01:01:36
5865GISELE ARTIGAS DE CRISTO34F303924FCHALLENGE TEAM01:02:06
5977LILIAN ESTEVES MARIA34F303925FEQUIPE ALTO GIRO PG01:02:09
6082MARIA EMILIA SILVA36F303926FASSOCIA??O COPEL CURITIBA01:02:30
6122JULIA BEATRIZ LOPES 16F132915FCHALLENGE TEAM01:02:37
62154MARI RODRIGUES42F404915FPENELOPES RUNNERS REALIZE01:02:51
63176SIMONE POSCHIONTEK42F404916FCORRA+KM01:02:56
6483MARIANE BONATO36F303927FCHALLENGE TEAM01:02:57
6546DALVA WENCELOSKI39F303928FCHIMARUN01:03:16
661ADRIELE DE FATIMA NETZEL MAZUL29F132916F01:03:17
67167ROSANGELA ROSSETIM HEUSI41F404917FHEUSI BIKES01:03:36
6870JULIANA FERREIRA DIAS30F303929FPAPALEGUAS01:03:48
69120ANDREA CARDOSO DE LIMA44F404918FASSOCIA??O COPEL CURITIBA01:04:12
70135EDELOURDES DA VEIGA LIMA47F404919FGUERREIROS RUNNERS01:04:20
712ANA MARIA KRUPA 24F132917FCHALLENGE TEAM01:04:28
7294PRISCILA CRISTINA BRUNETTO BONACIN38F303930FV8 ASSESSORIA01:05:25
7348DANIELLE GROSS DE FREITAS32F303931FTEAM SELVA01:05:35
7447DANIELA MARIANO SANTOS37F303932FMANOCCHIO TRAIATHLON TEAM01:05:43
75197SUZANA MORAIS DE LIMA50F50994FTHE RUNNING MOMS01:06:19
7661FLAVIA FRANDSEN SANTOS34F303933FEKIP DE 5?01:06:43
7754ELIZETE DO ROCIO DOS SANTOS35F303934FPAPALEGUAS01:07:56
78160PATRICIA CARVALHO45F404920F01:08:00
7984MARILIA MUNIQUE DOS SANTOS COSTA31F303935FTHE RUNNING MOMS01:08:14
80155MARIA CRISTINA DOS SANTOS41F404921FMARCELO01:08:46
81111SUZAMAR WILSEK36F303936FCHIMARUN01:09:01
82106SIMONE DALAVALE38F303937F01:09:30
835CAMILE BERALDI29F132918FTRC BRASIL01:09:40
84186JACIRA RODRIGUES VIEIRA64F50995FLAPATLETAS01:09:44
8585MICHELLE SANTOS31F303938FCHALLENGE TEAM01:10:00
8663GEOLICE LISKA36F303939FLISKA01:10:12
8793PAULA BEZERRA CORDEIRO30F303940FG5 ESPORTES / LIDERAN?A HOME DESIGN01:10:50
88150LUCIANE MANEIRA STDREZK49F404922FCHALLENGE TEAM01:12:20
89114VANESSA DE CASSIA LEMOS RAMOS37F303941FLAPATLETAS01:12:21
90109SUELEN PSCHEIDT DE OLIVEIRA34F303942FCARBONO ASSESSORIA ESPORTIVA01:12:25
9172JULIANA ROCHA TAVARES37F303943F01:12:43
92145JOSIANE APARECIDA AIRES47F404923FG5 ESPORTES / LIDERAN?A HOME DESIGN01:13:01
939FABIANA QUADROS24F132919FCHALLENGE TEAM01:13:10
94168ROSSANA THA HIDALGO43F404924FTHE RUNNING MOMS01:13:15
9578LORIANE RAMOS38F303944FCHALLENGE TEAM01:14:12
9635ADRIANE REICHERT FARIA 38F303945F01:14:23
9771JULIANA JOVENCIO DORIQUI37F303946F01:14:28
9856FABIANA ESPOSITO38F303947FTHE RUNNING MOMS01:14:30
99172SHARYS PRYSCILA NAVARRO KOVALIUK42F404925FTHE RUNNING MOMS01:14:30
10043CAROLINE GAIDA PERCEGONA30F303948FPAPALEGUAS01:14:32
10167JANINE FERREIRA DOS SANTOS30F303949F01:14:36
10249DANIELLE PAULA PAULINO34F303950F01:14:40
103146JULIANA GUBERT41F404926FBPM01:14:42
104137FABIANA KOWALSKI43F404927FTHE RUNNING MOMS01:14:57
105101ROBERTA MUNHOZ DE OLIVEIRA LEME VIARO33F303951F01:16:13
106124ANDREIA SCARPIM41F404928F01:17:04
107136ELAINE CRISTINA PALU DOS SANTOS40F404929F01:17:05
108131CRISTIANE SIKORSKI45F404930FASSOCIA??O COPEL CURITIBA01:17:10
109162PRISCILA MARIA DE PAULA42F404931FPENELOPES RUNNERS REALIZE01:17:29
11036ANA CAROLINA SIM?O 34F303952FCHALLENGE TEAM01:17:31
11190NERIANE CECCON DE JESUS PORTELA38F303953FCHALLENGE TEAM01:18:10
112169SAMIRA SALOMAO MURATA40F404932FVAMOQVAMO BRASIL01:18:22
113163ROSA SATIKO SAKAMOTO TASCA46F404933FVAMOQVAMO01:18:28
114158MARIANE WERNECK BOTELHO45F404934FTHE RUNNING MOMS01:18:46
115178VANESSA KARUTA45F404935FTHE RUNNING MOMS01:18:56
116122ANDREA S. R. FRANUS40F404936FTHE RUNNING MOMS01:19:02
117128CLARICE MARCHALEK DE ARAUJO TEIXEIRA44F404937FTHE RUNNING MOMS01:19:02
11837ANA CLAUDIA DUPCHAK33F303954FANA & GUI01:19:04
11962FLAVIA POGOGELSKI39F303955FTHE RUNNING MOMS01:19:07
120181EDIVANIA SILVEIRA50F50996FMEIRELLES ASS. ESP.01:19:17
121187JEANE BAHR51F50997FTHE RUNNING MOMS01:20:03
122183FRANCIS MARA MARCA52F50998FTHE RUNNING MOMS01:20:06
12364GESSICA DIAS BAZZI39F303956FPAPALEGUAS01:20:11
124126AUDREY RODRIGUES42F404938FTHE RUNNING MOMS01:20:17
125138F?TIMA DE SOUZA47F404939FG5 ESPORTES / LIDERAN?A HOME DESIGN01:20:44
126142IVONE FELDHAUS DE SOUSA49F404940FG5 ESPORTES / LIDERAN?A HOME DESIGN01:20:45
127174SILVIA MARA SCHOLZE MANSUR49F404941FPAPALEGUAS01:21:05
12810FABIOLA VAZ27F132920FLOS VAGOS RUNNERS01:21:19
12913GIOVANNA CAROLINA BISS FINGER21F132921FBPM01:21:22
130148LARA AKIKO COELHO SEVERINO49F404942FRUN4FUN01:21:28
131110SUSANE DIAS 31F303957FFAMILY FITNESS CURITIBA01:21:41
132179VIVIANE CHIBINSKI DE ANDRADE FIGUEIRA43F404943F01:21:41
133192ROSA MATSUKO MIURA OLIVEIRA60F50999F01:22:55
13489NATIELE FRANCA TURMAN34F303958FWEB TREINO01:23:00
13521JOSIANE MOREIRA DOS SANTOS25F132922FMULLER BIKES01:24:37
136102ROSANA MULLER 32F303959FMULLER BIKES01:24:38
13742BETINA PELEGRINI39F303960FTHE RUNNING MOMS01:26:20
13860FERNANDA PELIZZARI CHEMIN 35F303961FPAPALEGUAS01:26:46
139125ANI CRISTINA FEITOSA TORRES GUIMAR?ES45F404944FTHE RUNNING MOMS01:28:14
140152MAGALI CASTRO DA SILVA47F404945FPAPALEGUAS01:28:15
14129SUELEN RODRIGUES DA SILVA27F132923FCHIMARUN01:28:29
14251EDNEA HELANSKI VERES30F303962FCHIMARUN01:28:31
14374KELLEN CRISTINA JACOMASSO36F303963FCHALLENGE TEAM01:28:53
14453ELIZA SCHIAVON34F303964FCHALLENGE TEAM01:29:24
145149LUCIANE MAIA42F404946FTHE RUNNING MOMS01:30:31
14668JOVANCA KAMIZI ICHIKAWA39F303965FTHE RUNNING MOMS01:30:57
147112TATIANE DE CASSIA VIESE38F303966FTHE RUNNING MOMS01:30:57
148129CLAUDIA ALMEIDA SCHICKER47F404947FTHE RUNNING MOMS01:30:58
149130CRISTIANE DE CARVALHO SALCEDO44F404948FTHE RUNNING MOMS01:30:58
15017JESSICA DA SILVA26F132924FRUN4FUN 01:34:06
1514CAMILA HOLTZ KOLENEZ27F132925FRUN4FUN01:34:09
15223LAURA SOLTOSKI DE CAMARGO21F132926F01:34:25
153151LUCIANE MERICO DOS SANTOS46F404949FPAPALEGUAS01:34:27
15495PRISCILA DE FATIMA OLIVEIRA39F303967F01:34:28
155118ALESSANDRA SPREA45F404950FMAXXYMA ASSESSORIA ESPORTIVA01:35:08
156134DANIELE LUCIOLA CECONE 42F404951FCARBONO ASSESSORIA ESPORTIVA01:35:42
157391ELIANE MARCINIUK45F404952FFAMILY FITNESS CURITIBA01:36:26
158153MARCIA REGINA MESSAGGI GOMES DIAS41F404953FTHE RUNNING MOMS01:36:40
159193ROSSANA MARA SANSON MESSAGGI 50F509910FTHE RUNNING MOMS01:37:08
160157MARIANA KHATER41F404954FTHE RUNNING MOMS01:37:14
16191OLINDA SOARES FERNANDES DE JESUS38F303968FCARBONO ASSESSORIA ESPORTIVA01:37:34
162190MARIA SALETE MARCON GOMES VAZ52F509911FMOVIMENTA PG01:39:26
16341BEATRIZ ALESSANDRA DA COSTA ALBERTI37F303969F01:39:42
164117ADRIANA MARCONDES PINHO CHAVES PINTO43F404955FCORRIDA LEGAL01:39:51
16598RAFAELI VENDRUSCOLO32F303970F01:39:52
166185ISABEL IONE MARTINS51F509912F01:39:56
16711FA?NNE DOS SANTOS VAZ22F132927FLOS VAGOS RUNNERS01:39:59
16820JESSICA VAZ25F132928FLOS VAGOS RUNNERS01:40:01
169180ANA PAULA MACHADO54F509913FG5 ESPORTES / LIDERAN?A HOME DESIGN01:40:18
170189MARIA CINIRA DE MEIRA64F509914FDX ASSESSORIA ESPORTIVA01:40:28
17132VANESSA DE C?SSIA VIEL29F132929FPAPALEGUAS01:43:00
17238ANA KAROLINE DE OLIVEIRA32F303971FPAPALEGUAS01:43:00
173433GORA OLIVEIRA52F509915FPAPALEGUAS01:43:01
174140GISELE MARIA SLOMP ALBERTINI49F404956FTHE RUNNING MOMS01:43:15
17586MIRIAN GUIMARAES36F303972FPAPALEGUAS01:44:16
17627PAMELA ALBERTINI24F132930FTHE RUNNING MOMS01:44:19
177196STELA MARLENE SCHWERZ51F509916F01:45:20
17873KARINE W. CHAGAS34F303973FPENELOPES RUNNERS REALIZE01:46:01
179104SABRINA DO ROCIO CROVADOR 35F303974FCHALLENGE TEAM01:46:02
180115VANESSA PEREIRA34F303975FCHIMARUN01:46:02
181194SILVANE CZEKALSKI52F509917FPENELOPES RUNNERS REALIZE01:46:06
182121ANDREA RODRIGUES43F404957FBPM01:50:07
183107SIMONE KARUTA38F303976FTHE RUNNING MOMS02:04:27
184116VIVIANE DAL MOLIN DE SOUZA35F303977F02:41:16

Geral Masculino 6Km


Cl.Num.NomeId.FaixaCl.Fx.Sx.EquipeTempo
1230GUSTAVO NOGAS31M3039-MG5 ESPORTES / LIDERAN?A HOME DESIGN00:32:47
2246ROG?RIO ESTURARI CAMPOS34M3039-MG5 ESPORTES / LIDERAN?A HOME DESIGN00:32:49
3221ALISON RODRIGO DE SANTANNA33M3039-MLAPATLETAS00:35:23
4210KLEITON WELTON PEREIRA21M13291MPAPALEGUAS00:35:29
5202EDUARDO LIMA28M13292MGUERREIROS RUNNERS00:38:57
6288VALDINEI CARLOS DA ROSA42M40491MCHIMARUN00:40:44
7227EDUARDO FILLA NETTO39M30391M00:40:53
8205GUILHERME BAIACK25M13293MCHALLENGE TEAM00:41:07
9203EZEQUIEL MOREIRA26M13294MCHALLENGE TEAM00:41:43
10226EDICARLOS MENDES DORADO39M30392MCHIMARUN00:41:50
11224CARLOS ALEXANDRE VIDOLIN30M30393M00:42:19
12278MARIO PIETRZAK40M40492M00:42:22
13200CASSIO DIAS DE ANDRADE JUNIOR26M13295MPONTO B RUNNING00:42:58
14229FERNANDO LUGO NUNES33M30394M00:43:08
15253CLEBSON ESTURARI CAMPOS40M40493MG5 ESPORTES / LIDERAN?A HOME DESIGN00:43:14
16216SANDRO LUIS WALUS28M13296MPENELOPES RUNNERS REALIZE00:43:25
17274MARCO PARIZE 41M40494MMEIRELLES ASS. ESP.00:43:34
18255DANIEL LUIZ LINHARES44M40495MTHE RUNNING MOMS00:44:02
19225CELIO SANTOS DE PAULA38M30395MLOUCOS POR CORRIDA00:44:28
20301MARCIO VALLE 51M50991MTHE RUNNING MOMS00:44:33
21238LUCIANO TAVARES DE LEMOS32M30396MLEMOS 00:44:37
22302MARCOS BERTOJA 52M50992MCHALLENGE TEAM00:44:37
23234JEAN CARLOS MARINS ROSS31M30397MLOS VAGOS RUNNERS00:44:52
24263GERSON SCHIONTEK47M40496MCORRA+KM00:44:57
25259ERLON ROBERVAL KONOPACKI42M40497MCIA DA FORMA00:45:12
26307REINALDO DE SOUZA LIMA53M50993MGUERREIROS RUNNERS00:45:25
27252CESAR KUROSKI42M40498MCHALLENGE TEAM00:45:43
28283RICARDO MACIEL DOS SANTOS47M40499M00:46:26
29199ARTHUR JOSE SIMEAO20M13297MWS FITNESS00:46:32
30217VITOR SOLIERI DO VALE15M13298MVELOZES E MENTIROSOS00:47:01
31242ODIRLEI GEQUELIN39M30398MCHALLENGE TEAM00:47:17
32287UBIRAJARA DE ARAUJO TEIXEIRA48M404910MTHE RUNNING MOMS00:47:18
33204GUILHERME WEINERT24M13299M#RUNNERS00:47:55
34260EULER GUIMARAES41M404911MTOMANADA00:48:15
35212LUIZ GUILHERME KUDLA SCHAPHAUSER25M132910M00:48:22
36292ANTONIO BELNIAKI66M50994MLAPATLETAS00:48:50
37201DIEGO PRINZEN RIBAS22M132911M00:48:54
38312SIDNEY ROBERTO SCHERER53M50995MMOVIMENTA PG00:49:13
39281PAULO GARBUIO45M404912MMEIRELLES ASS. ESP.00:49:14
40296HELCIO LUIZ CROSETA60M50996MCURITIBAGPS00:49:59
41294CELIO NETZEL51M50997MCHALLENGE TEAM00:50:58
42266JO?O PEDRO PRAISNER42M404913MPENELOPES RUNNERS REALIZE00:51:31
43243RAFAEL HENRIQUE CONTE WECK32M30399MCORRIDA LEGAL00:52:20
44272LUIS ALESSANDRO VOLPATO MERELES43M404914MMERELES00:52:36
45240MAUR?CIO MELO35M303910MCHALLENGE TEAM00:52:37
46198ALAN REINA GARCIA27M132912MPAPALEGUAS00:52:50
47214RHOGER NUNES26M132913MPAPALEGUAS00:52:50
48265HENRIQUE PRESSER40M404915MCERVEJARIA KLEIN 00:53:07
49289ADILSON ALVES DE LIMA52M50998M00:53:51
50237LEANDRO RAMOS STADELMANN30M303911MPENELOPES RUNNERS REALIZE00:53:58
51269JULIANO CESAR TASCA44M404916MVAMOQVAMO00:54:04
52257DANIEL RIBEIRO DA SILVA40M404917MCHIMARUN00:55:50
53270LA?RCIO PEREIRA DE JESUS49M404918MASSOCIA??O COPEL CURITIBA00:56:33
54277MARCOS SAITO BABA45M404919MPONTO B00:57:07
55236JOAO MANOEL ROCHA DIAS39M303912M00:57:35
56298JORGE LUIZ KIMIECK53M50999MARENAVISUAL FOTOGRAFIA00:57:58
57250ALEXSANDRO CASTRO43M404920MPAPALEGUAS00:58:03
58215RICARDO LEITOLES CORREA28M132914MCHALLENGE TEAM00:58:28
59284RODRIGO MESSAGI42M404921MTHE RUNNING MOMS00:58:39
60239MADHU SUKUMAR NAIR39M303913MR100:58:46
61219ALBERT SAMUEL GUIDES30M303914MEQUIPE R100:58:53
62222ARTUR MUNHOZ36M303915MBROLEX00:58:56
63228EZIAS MACENO38M303916MTHE RUNNING MOMS00:59:32
64247VILMAR DECARLI JUNIOR 38M303917M00:59:41
65231GUSTTAVO WOJCIECHOWSKI32M303918M00:59:56
66254DAMIANO BARBOSA DOS ANJOS JUNIOR40M404922MVAMOQVAMO BRASIL01:00:02
67241MURILO LEMES GROKOSKI30M303919MPONTO B RUNNING01:00:07
68273LUIZ CANDIDO DE ALMEIDA NETO45M404923MALMEIDA01:00:47
69285SANDRO A MALINOWSKI45M404924M01:01:01
70233JEAN APARECIDO ROMANO DA SILVA34M303920MOS AVENTUREIROS01:01:12
71309SERGIO ANTONIO SCHAFHAUSER57M509910MRUN4FUN01:01:33
72267JOS? CARLOS AIRES49M404925MG5 ESPORTES / LIDERAN?A HOME DESIGN01:01:40
73275MARCOS MARCIO KRUPA43M404926MCHALLENGE TEAM01:03:28
74256DANIEL PSCHEIDT48M404927MCHALLENGE TEAM01:03:59
75279MARLON PIEKARZ BORTOLOTTO48M404928MCIA ATHLETICA01:04:23
76207JONATHAN CASTAGNARI21M132915MLOS VAGOS RUNNERS01:05:25
77311SIDNEY JOSE DOS SANTOS51M509911M01:07:55
78299JOS? ALTAIR BERTON 51M509912MCHALLENGE TEAM01:09:56
79282RICARDO CORDEIRO JUNIOR42M404929MLISKA01:10:11
80218ALAN DI MARIO36M303921MPENELOPES RUNNERS REALIZE01:10:26
81291ALVARO ALBERTO RIBEIRO DA SILVA67M509913MCHIMARUN01:11:51
82290ADIR BORGES STDREZK54M509914MCHALLENGE TEAM01:12:20
83223CARLOS ALEXANDRE CASSIMIRO31M303922MR101:16:10
84268JOSUE BARBOSA47M404930MCHIMARUN01:17:10
85244REGIS CARDOSO35M303923MCHALLENGE TEAM01:17:32
86209KLEBERSON RICADO TELLES29M132916MPENELOPES RUNNERS REALIZE01:18:30
87258ELISANDRO POGOGELSKI43M404931MTHE RUNNING MOMS01:19:07
88293BIN KANG CHENG77M509915M01:21:03
89211LAION ANDR? SANTOS COELHO26M132917MBPM01:21:22
90310SERGIO LUIZ SEVERINO52M509916MRUN4FUN01:21:28
91297JOAO CARLOS DOS SANTOS VAZ51M509917MLOS VAGOS RUNNERS01:23:05
92133DANIEL BUENO SALCEDO44M404932MTHE RUNNING MOMS01:23:06
93295CRISTOVAO LINS DE BARROSLEMOS73M509918M01:23:14
94261FERNANDO PELEGRINI44M404933MTHE RUNNING MOMS01:26:21
95220ALDEMAR MAIA38M303924MTHE RUNNING MOMS01:30:31
96300JOS? LUIZ CORREIA58M509919MARS RUNNING01:32:38
97262FLAVIANO VENTORIM41M404934MTHE RUNNING MOMS01:33:03
98206IGOR ANDRE SCHUMACHER28M132918MRUN4FUN 01:34:05
99213PAULO RODRIGO KOLENEZ28M132919MRUN4FUN01:34:08
100232JACKSON SAVI ALBERTI36M303925M01:39:42
101304ORLANDO ALBERTINI53M509920MTHE RUNNING MOMS01:43:16
102305PAN HSU YUN LING67M509921M01:47:58
103308REINALDO GRUBE NETO64M509922MEQUIPE DE FIBRA/ GAVINSKI TREINAMENTOS01:48:29
104276MARCOS MARINHO44M404935MBPM01:50:06
105245RODRIGO DO VALE CZAJKOWSKI32M303926M02:12:25

Geral Feminino 12Km


Coloc.NumeroNomeId.Fx.Et.Cl.Fx.Sx.EquipeTempo
1334TATIANE MICKOSZ DO NASCIMENTO29F1329-FMAJLAB/ FUNSPORT01:24:13
2390ELIANE DOS SANTOS FERNANDES40F4049-FWS RUN01:27:53
3351LUCI MARI K WENGLAREK GRUBE37F3039-FEQUIPE DE FIBRA/GAVINSKITREINAMENTOS01:29:05
4328GISELE MOREIRA28F13291FCHALLENGE TEAM01:35:44
5330NATHALIA CRISTINA ALBERTON 26F13292FCHALLENGE TEAM01:42:37
6372ALEXANDRA LAUDELINO42F40491FMOVIMENTA PG01:47:08
7321ANDRESSA DE F?TIMA DA ROCHA PONTES 29F13293FASSOCIA??O COPEL CURITIBA01:49:59
8376ANDREIA MARTA VOLPINI44F40492FPAPALEGUAS01:50:51
9331REGIANE PORTELLA GOMES27F13294FCHIMARUN01:55:24
10323ANTONIA FRANCISCA CAVASSIM27F13295F01:59:07
11366TATIANA LOPES DE ANDRADE NOVENTA36F30391F02:00:12
12422SUZANA MARIA GEQUELIN SEZYSHTA46F40493FCHIMARUN02:01:31
13436MARI JUCIELIA BACH52F50991FSUPERA??O02:06:17
14425VANESSA DE S. PIRES 45F40494FHL ASSESSORIA ESPORTIVA 02:06:22
15347HELOISA CRISTINA NASS35F30392FPAPALEGUAS02:07:22
16389DIRCE MARGOTI PEREIRA43F40495FTHE RUNNING MOMS02:07:41
17402LISSANDRA REGINA44F40496FTHE RUNNING MOMS02:07:42
18427VANUZA PEREIRA DA ROSA40F40497FCHIMARUN02:08:09
19332SILVIA CARLA SIEBRE29F13296FS?CORRENDO02:08:11
20336AMANDA CLEMENTE DA SILVA35F30393FOS AVENTUREIROS02:08:32
21365TALITHA SHARA MIQUELASSO35F30394FPAPALEGUAS02:08:47
22438MARIA ELIVANIA REIS COSTA BARROS53F50992FTRAINER02:10:30
23383CLAUDIA REGINA RUIZ DE OLIVEIRA41F40498F02:12:19
24404LUCIANA MACHADO DE OLIVEIRA DOS SANTOS BONATTO41F40499FCARBONO ASSESSORIA ESPORTIVA02:14:28
25322ANGELA MARIA GORSKI26F13297FCHIMARUN02:15:09
26382CLAUDIA CRISTINA CARDOSO DE LIMA47F404910FASSOCIA??O COPEL CURITIBA02:15:15
27388DANY PATRICIA LEMES PINHEIRO BORTOLOTTO40F404911FCIA ATHLETICA02:15:22
28374ANA PAULA CATTANEO40F404912F4RUN02:15:28
29326DAIANA VANDRES RIBEIRO28F13298FCHALLENGE TEAM02:16:19
30413MICHELE ?VILA41F404913FV8 ASSESSORIA ESPORTIVA02:16:20
31350LUANA HAUPTMAN CARDOSO DE OLIVEIRA36F30395FASSOCIA??O COPEL CURITIBA02:18:19
32384CLAUDIO DE LACERDA44F404914FTHE RUNNING MOMS02:18:55
33385DANIELA OGLIARI LINHARES44F404915FTHE RUNNING MOMS02:21:00
34435LEILA MARIA RABONI55F50993FTHE RUNNING MOMS02:21:38
35398KARLA BONDI BIAVATTI46F404916FPAPALEGUAS02:22:17
36371AIGIA LETCIA GUERRA40F404917FARS RUNNING02:22:23
37394GISELE BENETOLLO46F404918FMEIRELLES ASS. ESP.02:24:06
38408MARCELIA LOPES PORTELA49F404919FCHALLENGE TEAM02:25:42
39349LEIRY SIMONINI ANDRADE34F30396FDX ASSESSORIA ESPORTIVA02:27:02
40357NERLI CRISTINA WEBBER38F30397FATIVACATS02:28:30
41416ROSEMEIRE APARECIDA DOS SANTOS LOPES45F404920FCHIMARUN02:29:02
42327GABRIELLE MION MALUCELLI20F13299FCHIMA RUM02:31:52
43333SUELEN SEZYSHTA26F132910FCHIMARUN02:31:52
44434LAURECI IZAURA SPERUM50F50994FPAPALEGUAS02:32:08
45360ROBERTA RIBEIRO BISETTO 35F30398FCHALLENGE TEAM02:32:13
46377BIANCA NUNES CABREIRA44F404921FTHE RUNNING MOMS02:32:16
47344EDINEIA DE LIMA LEAL31F30399F02:32:32
48352LUCIANA PATRICIA LOPES 38F303910FCHALLENGE TEAM02:34:43
49381CINTHIA ZENEDIN KONDO SOLHEID49F404922FBPM02:35:41
50335ALINE DE OLIVEIRA DE MACEDO31F303911FASSOCIA??O COPEL CURITIBA02:37:10
51423SUZIANE ROGERIA DA SILVA 42F404923FCHALLENGE TEAM02:39:18
52375ANA PAULA MAKIOSZEK43F404924F02:39:39
53369VIVIANE C. F. DE LIMA35F303912FHL ASSESSORIA ESPORTIVA 02:39:41
54345ELAINE C. F. DE LIMA 35F303913FHL ASSESSORIA ESPORTIVA 02:39:44
55354MARCIA L SILVA39F303914F02:40:42
56440MARISE EPPINGER54F50995F02:41:34
57431GEMA INES FRANCISCON54F50996FCARBONO ASSESSORIA ESPORTIVA02:41:51
58368VERENA LASKOS32F303915FSUPERA??O02:43:26
59355MARIA EMIDIA CARDOSO HAMMERSCHMIDT39F303916FLAPATLETAS02:43:30
60410MARIA TEREZA NERVINO47F404925FFIRME NA PA?OCA02:43:46
61380CINTHIA MARA SOLIERI DO VALE44F404926FVELOZES E MENTIROSOS02:43:47
62358OKSANA KINDRA31F303917F02:43:51
63353LUCIANA TAVARES THIERBACH33F303918FPR410 RUN CLUB02:44:00
64415ROBERTA VAZ DE MELLO42F404927FT?NIA SPINDLER 02:44:41
65428YUMI YAMAWAKI41F404928FTANIA SPINDLER02:44:41
66343DAYSE CRISTINA GOMES36F303919FMINORU02:45:19
67424TUPYARA LOPES48F404929F02:45:48
68430ANGELA C. MARQUES 55F50997FHL ASSESSORIA ESPORTIVA 02:48:00
69370VIVIANE CAROLINE MARCONDES31F303920FBUSCAP? RUNNERS02:48:48
70373AMANDA REGINA DE S DA SILVA40F404930F02:48:51
71412MARISA DE FATIMA COSTA CETOLO43F404931F02:48:51
72420SILMARA GEQUELIM41F404932FCHIMARUN02:55:44
73362SHIRLEI MARELIS ZERIBETO32F303921FCHIMARUN02:55:45
74363SOLANGE FABRICIO38F303922FCHIMARUN02:55:45
75418SANDRA MARIA DAMASO FABRICIO41F404933FCHIMARUN02:57:40
76411MARINEIZ ALVARENGA DA SILVA VALENTE44F404934FCHIMARUN02:57:41
77421SOLANGE DE FATIMA DE SOUZA VALENTE42F404935FCHIMARUN02:57:43
78426VANIA VILLAR43F404936FT?NIA SPINDLER 03:00:40
79397JULIANA FLENIK MACHADO CABRAL45F404937FTHE RUNNING MOMS03:02:50
80399KATIA LACERDA 41F404938FTHE RUNNING MOMS03:02:50
81401LIGIANA MAFFINI ROMANUS42F404939FTHE RUNNING MOMS03:02:50
82405LUCIANE SHIRAI42F404940FTHE RUNNING MOMS03:02:50
83379CAROLINE BORGES40F404941FTHE RUNNING MOMS03:02:51
84395JANE KITANI48F404942FASSOCIA??O COPEL CURITIBA03:04:19
85414MIRALVA TEREZA RODRIGUES GOMES43F404943FASSOCIA??O COPEL CURITIBA03:04:19
86361SHEILA BORGONOVO39F303923FPAPALEGUAS03:04:20
87409MARIA CIRLEIDE VIEIRA49F404944FTANIA SPINDLER03:04:55
88407MARCELA ROBERTA LOPES TURIN DE ARAUJO42F404945FTANIA SPINDLER03:05:07
89400LARISSA GANDARA45F404946FTANIA SPINDLER03:05:23
90320ANA PAULA SPAK25F132911F03:07:21
91324BARBARA BATISTOTI25F132912FTHE RUNNING MOMS03:07:58
92387DANIELI DE CASSIA BOTELHO TREVISANI44F404947FTHE RUNNING MOMS03:07:59
93325CINTIA DO ROCIO LOZANO29F132913FLOS VAGOS RUNNERS03:08:17
94339CLAUDIA MACIEL LIMA39F303924FPAPALEGUAS03:08:40
95337ANDREA MALINOWSKI DOS SANTOS39F303925FCHALLENGE TEAM03:09:14
96392FABIANA BRAGAGNOLO NETTO45F404948F03:12:50
97403LOREN ZANETTI46F404949FCARBONO ASSESSORIA ESPORTIVA03:13:07
98341DAIANE PATRICIA MARTINATO33F303926FEQUIPE JACAR? DE CONGA03:15:37
99338BEATRIZ S. CASAGRANDE37F303927FHL ASSESSORIA ESPORTIVA 03:16:05
100417RUBIA MARA DOS SANTOS40F404950FPAPALEGUAS03:17:40
101342DAYANE GUIMARAES PEREIRA32F303928FRUNNING FRIENDS03:17:41
102419SILMARA ASSUN??O44F404951FPAPALEGUAS03:17:41
103429AGUIDA ROBERTA DE CAMARGO SARAIVA50F50998F03:17:49
104432GERMAR? DE FATIMA FERNANDES52F50999FPAPALEGUAS03:19:03
105359REGIANE DENISE BORGES33F303929FCHIMARUN03:21:58
106346GISELE APARECIDA FERREIRA35F303930FCHIMARUN03:22:00
107406LUZIA GUIDOLIN47F404952FPAPALEGUAS03:22:13
108437MARIA ELISABETE DIAS61F509910FMOVIMENTA PG03:22:13
109340CYNTTHIA FRANCO CRUZ34F303931F03:29:49
110367VALERIA ROSA37F303932F03:29:49
111386DANIELE DE FATIMA MORAES41F404953F03:32:06
112356MARTA PICCININ32F303933FDIONE PERFORMANCE03:32:07
113364SUE HELEN DE BRITO35F303934FPAPALEGUAS03:44:32

Geral Masculino 12Km


Cl.Num.NomeId.FaixaCl.Fx.Sx.EquipeTempo
1533HERMES JESIEL DOS SANTOS42M4049-MCHALLENGE TEAM01:03:42
2495LUIZ EDUARDO GAENSLY AMARAL31M3039-MCIA ATHLETICA01:06:13
3447GIULIANO DOS SANTOS29M1329-MMOVIMENTA PG01:08:24
4497MARCIO BEZERRA37M30391MLISKA01:09:20
5466ANDERSON QUEVEDO DA SILVA38M30392MEQUIPE JACAR? DE CONGA01:13:55
6553SINEI COSTA ROSA43M40491M01:14:32
7564NELSON MUNIZ50M50991MBPM01:14:37
8442CESAR MANGGER DOS SANTOS23M13291MWS ACADEMIA01:15:38
9455ROBERT RENAN SCHAYKOWSKI MAYER21M13292M01:16:05
10506RAFAEL AUGUSTO BINI32M30393MTEAM TOP RUNNERS01:16:23
11452PEDRO AUGUSTO ROSA PORTELA16M13293MCHALLENGE TEAM01:17:09
12444CLEITON SILVA DE OLIVEIRA26M13294MCHIMARUN01:17:10
13556WILSON DE OLIVEIRA MOHR44M40492MCIA ATHLETICA 01:17:19
14454RAFAEL HENRIQUE DOS SANTOS27M13295MASSOCIA??O COPEL CURITIBA01:18:50
15462ALESSANDRO DE CASTRO39M30394MCARBONO ASSESSORIA ESPORTIVA01:20:19
16476EDIVAN KOZEL35M30395M01:20:20
17461ADILSON PRZYBYLSKI35M30396MCOMPAGAS01:22:15
18547RENATO KRZYZANOVSKI43M40493MCHALLENGE TEAM01:24:39
19443CIRO GASPARIN MORAES29M13296MMIX 3 ASSESSORIA 01:25:42
20516RODRIGO TELLES34M30397MTHE RUNNING MOMS01:28:20
21535ITAMAR ARCO DE ARRUDA42M40494M#RUNNERS/MEIRELLESASSESSORIA01:28:29
22520WILLIAM AUGUSTO ROSE38M30398MTEAM TOP RUNNERS 01:29:08
23549RICARDO ZABLONSKI48M40495MCHIMARUN01:29:43
24522AMARILDO BONATTO46M40496MASSOCIA??O COPEL CURITIBA01:29:44
25494LUIS FELIPE PERCEB?O LOPES33M30399MCARBONO ASSESSORIA ESPORTIVA01:29:46
26486IVANILSON NEVES39M303910MASSOCIA??O COPEL CURITIBA01:30:00
27456RODRIGO FERREIRA29M13297MGUERREIROS RUNNERS01:33:32
28393FABIANO PEREIRA DE FREITAS40M40497MCHIMARUN01:34:08
29529EMERSON VIERA DE MACEDO42M40498MASSOCIA??O COPEL CURITIBA01:34:19
30448JEAN LEONARDO STDREZK28M13298MCHALLENGE TEAM01:34:30
31465ANDERSON MOLERO35M303911M01:35:04
32464ALEXANDRE SOHN35M303912MLOS VAGOS RUNNERS01:35:06
33559ELENIL DE OLIVEIRA62M50992MSTREET RUNNERS CURITIBA01:37:07
34488JEFERSON CASSIANO NICHEL34M303913MARS RUNNING01:37:10
35512RODRIGO FERREIRA DA ROSA36M303914MMOVIMENTA PG01:39:42
36508RAPHAEL LUIZ PYTLOWANCIV34M303915M01:40:58
37482GIAN MAURICIO NASCIMENTO35M303916MG5 ESPORTES / LIDERAN?A HOME DESIGN01:41:15
38460WILSON DIB JUNIOR29M13299MMUNDO BT RUNNERS01:41:49
39264GOSTAVO DEPIERI40M40499MCHALLENGE 01:41:54
40502PATRICK CARDOSO DE OLIVEIRA38M303917MASSOCIA??O COPEL CURITIBA01:44:19
41528EDSON BENATTO45M404910MBPM01:46:45
42484GUILHERME HAGEBOCK32M303918MFURAC?O RUNNERS01:47:03
43458WALLACE VINICIUS BERTON 23M132910MCHALLENGE TEAM01:47:17
44487JACSON SANT ANA MAZUL35M303919M01:49:32
45504PEDRO HENRIQUE COSTA34M303920MPAPALEGUAS01:50:49
46441ALEXANDRE PSCHEIDT 23M132911MCHALLENGE TEAM01:51:11
47446GABRIEL RICCIARDI17M132912MPAPALEGUAS01:51:11
48503PEDRO DRUZIK JR34M303921MCHALLENGE TEAM01:51:36
49530GILBERTO CORRADI JR.46M404911MMEIRELLES ASS. ESP.01:51:56
50517THIAGO SPADARI SOSO38M303922M01:51:57
51475DIEGO MULLER 33M303923MMULLER BIKES01:53:25
52511RODRIGO C ALCINE36M303924MV801:53:31
53543MARCIO MAROCHI 49M404912MCHALLENGE TEAM01:53:33
54483GILSON EUCLIDES BORA34M303925MMULLER BIKES01:53:56
55501OTAVIO AUGUSTO FLEMMING32M303926MEKIP DE QUINTA CATEGORIA 01:54:02
56449MAICOL DOUGLAS FERNANDES BANDEIRA28M132913M01:55:11
57489JOBERT SALATIEL DOS SANTOS ANDRADE38M303927MGET RUNNERS01:55:15
58481FERNANDO POLETO DE CASTRO33M303928MGET RUNNERS01:55:16
59544MARCO ANTONIO GANDARA46M404913MTANIA SPINDLER01:56:41
60531GIOVANNI CARVALHO MARQUESI41M404914MT?NIA SPINDLER01:56:42
61561HAMILTON TADEU MACHADO BORGES54M50993MRUNNING4US01:56:44
62557AILTON TERUMI51M50994MCP RUNNERS01:56:47
63500NICKI MALLMANN36M303929MCIA ATHLETICA01:56:55
64542MARCILIANO PEDRO GOBOR43M404915MCHIMARUN01:57:26
65507RAIMUNDO PINHEIRO DA SILVA39M303930MBUSCAP? RUNNERS01:59:35
66472CLAUDIO JOSE DE QUADROS39M303931MLIDER MANOS01:59:42
67478FABIO ALFREDO GERONASSO38M303932MLOUCOS POR CORRIDAS02:01:18
68480FELIPE CONSOLI33M303933M02:01:49
69552ROGERIO SABATELLA ADAM46M404916MPAPALEGUAS02:02:50
70470AVELINO FRIGHETTO JUNIOR36M303934MOS AVENTUREIROS02:03:52
71537JOAO HENRIQUE CABRAL46M404917MTHE RUNNING MOMS02:05:34
72546RAFAEL FAVONI BIUDES42M404918M02:05:57
73519WESLEY KANTOR36M303935M02:07:17
74534ISAEL BRANDALISE47M404919MCHIMARUN02:08:08
75525ARNALDO NIZER DO VALE43M404920MVELOZES E MENTIROSOS02:09:27
76518WESLEY HERBT DICK31M303936M02:09:33
77490JOSE QUADROS39M303937MLIDER MANOS02:13:18
78554WILLIAM ?VILA J?NIOR43M404921MV8 ASSESSORIA ESPORTIVA02:14:10
79445FERNANDO LUIZ DE OLIVEIRA21M132914MCHALLENGE TEAM02:14:31
80471BRUNO DA SILVA VIDAL DONATO32M303938MCHALLENGE TEAM02:14:31
81527CLEO AMARO FILHO 46M404922MTHE RUNNING MOMS02:14:35
82509RENATO MATOS34M303939MTHE RUNNING MOMS02:14:36
83453RAFAEL FERNANDO BOTTEGA DE MELLO 29M132915MPAPALEGUAS02:15:26
84457THIAGO RODRIGUES DA ROCHA28M132916MPAPALEGUAS02:15:27
85532GIULIANO CESAR BREDA DE SOUZA45M404923M02:15:31
86568GREGORY GANDELMAN33M303940M02:17:42
87459WELLINGTON LUIS LIMA19M132917M02:17:52
88474CLEITON SIPRIANO32M303941M02:17:58
89505PEDRO PEREIRA CARDOSO JUNIOR30M303942M02:18:04
90560EMERSON LUIZ LESNIOWSKI56M50995MR1 / VETHA02:21:49
91477FABIO ALEXANDRE FERREIRA FREIRE35M303943M02:22:13
92526CASSIANO RICARDO SCHNEIDER45M404924MSCHNEIDER02:22:22
93493LUIS ANTONIO ZANETTE34M303944MCOMPAGAS02:23:15
94485HEMERSON ELIAS PADILHA30M303945MQUE LINDA ESSA GATA02:25:41
95524ARLEI VOLMIR PETRY40M404925MCINDACTA 202:28:05
96566NEWTON LUIZ DA CUNHA63M50996MMINORU02:28:15
97513RODRIGO GONZALES38M303946MTRAINNER02:28:29
98515RODRIGO PACHECO39M303947MJURUPINGA RUNNERS02:28:51
99558ANDRE LUIZ DE LIMA54M50997M02:30:38
100541LUIZ ORLANDO ARSIE49M404926M02:30:57
101548RICARDO VILLAR43M404927MTANIA SPINDLER02:31:59
102563MAURO SOVIERSOSKI TATARA68M50998MCHALLENGE TEAM02:33:15
103540LUIZ FERNANDO SOLHEID49M404928MBPM02:35:41
104467ANDR? VIN?CIOS BISETTO36M303948MCHALLENGE TEAM02:36:39
105496MAIKEL RAMOS DOS SANTOS39M303949MCHALLENGE TEAM02:36:56
106555WILSON AURELIO TAPIA LIMA43M404929MCHIMARUN02:37:09
107499MAURICIO AMARAL CANTAO35M303950M02:37:34
108498MARCIO H. JAQUES39M303951MFAMILY FITNESS CURITIBA02:40:38
109523ANDRE LUIZ RICCIARDI43M404930MPAPALEGUAS02:43:08
110551ROGERES BRUNO BALDISSERA44M404931MPAPALEGUAS02:43:08
111565NERY FREDERICO SARDA58M50999M02:45:47
112550ROGER HUNTER 45M404932MHL ASSESSORIA ESPORTIVA 02:47:10
113451PAULO PINTO28M132918MLINDA ESSA GATA!02:48:45
114450M?RIO KONDO NETO20M132919MBPM02:48:48
115514RODRIGO MARTINI33M303952MLINDA ESSA GATA!02:53:09
116479FABIO CARLOS TEIXEIRA37M303953MBOQUE KENYA02:54:54
117468ANDY JOSE SILVEIRA33M303954M03:00:18
118521ALAN ABIATAR DE ALMEIDA42M404933MASSOCIA??O COPEL CURITIBA03:04:19
119567RONALDO SERGIO PODOLAK PENCAI60M509910MTRAINER ASSESSORIA ESPORTIVA03:07:13
120492LUCIANO FRACARO36M303955MCHIMARUN03:12:50
121539LUIS EDUARDO TULESKI ARTIGAS46M404934MCARBONO ASSESSORIA ESPORTIVA03:16:04
122562JOSE ROBERTO DUTRA HAGEBOCK66M509911MFURAC?O RUNNERS03:17:19
123491LEANDRO KLUBER34M303956MRUNNING FRIENDS03:17:41
124545MARCO AUR?LIO MEIRA43M404935MPAPALEGUAS03:17:41
125473CLAYTON RIVA ALVES35M303957M03:18:26
126469ANTONIO APARECIDO TIXILISKI33M303958MCHIMARUN03:22:00

Geral Feminino 17Km


Cl.Num.NomeId.FaixaCl.Fx.Sx.EquipeTempo
1621MARIA APARECIDA CHAVES VAZ51F5099-FMOVIMENTA PG01:46:43
2612MARINES ADRIANA PAOLAZI41F4049-FSEBO NAS CANELAS01:47:13
3596MARCIA REGINA DA SILVA35F3039-FDX ASSESSORIA01:54:11
4602SOLANGE KUBRACK31F30391FTEAM EVOLUTIOM01:56:27
5578BRUNA MARA RAUSIS29F13291FLOS VAGOS RUNNERS01:58:00
6607GENI MARIA VERES BRANDALISE44F40491FCHIMARUN01:59:56
7579FRANCIELE AMARAL DA ROCHA28F13292F02:00:09
8605EDINEIA RATZKE40F40492FPAPALEGUAS02:10:07
9620MARCIA APARECIDA BISS52F50991FBPM02:12:05
10585CAMILA BRAGA36F30392FCARBONO ASSESSORIA ESPORTIVA02:15:58
11619LILLI MARLENE BURKHARDT SCHEFER60F50992F02:16:50
12598PATR?CIA MORESCO34F30393FPAPALEGUAS02:19:43
13588FL?VIA GODOY MEDEIROS31F30394FPAPALEGUAS02:21:44
14600ROGERIA BULERI FAGUNDES39F30395FPAPALEGUAS02:23:33
15617DINACIR ZEM50F50993F02:25:33
16606ELIANNE DE PAULA49F40493F02:33:58
17583ALEXANDRA LUCIANA CARDOZO DOS SANTOS38F30396FDANIEL LECH02:34:00
18595MARCIA MARQUES DE SOUZA37F30397FSVD TRANSPORTES02:35:39
19597NAIARA PELOZI RODRIGUES31F30398FLOS VAGOS RUNNERS02:36:23
20601ROSMARI GON?ALVES FARIA39F30399FEQUIPE JACAR? DE CONGA02:39:18
21581MICHELE MARCHESINI29F13293F02:50:35
22594LUCIMARI SCHMIDT DE OLIVEIRA38F303910F02:50:36
23615ROSELENE INES MULLER JITUMORI48F40494FMOVIMENTA PG02:51:21
24590GISELE C MEIRA39F303911FSTAMPAFERRUN02:52:47
25577BRUNA BICHET25F13294FPAPALEGUAS02:54:52
26604CHRISTIANE PAULONI BRITO45F40495FPAPALEGUAS02:56:11
27603ALESSANDRA BRINKMANN42F40496F02:57:47
28591GISELI CAROLINA BARBOSA DE SOUZA33F303912FBPM03:01:34
29618KATIA MOLINARI53F50994FCIA ATHLETICA03:07:48
30613MARY ALMEIDA47F40497FSTA MARIA03:09:51
31589FLAVIA HENNING GIRARDI34F303913FCARBONO ASSESSORIA ESPORTIVA03:13:07
32614OLGA TEREZINHA ELIAS48F40498FMOVIMENTA PG03:13:22
33593KARLLA LUIZA VIEIRA CARDOSO38F303914F03:19:38
34611LEONICE ROCHINSKI40F40499FMARISTA03:19:38
35622MARIA SIRLENE DOS SANTOS PEREIRA61F50995FASSOCIA??O COPEL CURITIBA03:28:53
36580LUCIANE APARECIDA FEDALTO25F13295F03:32:41
37599REJANE PATRICIA HOSSEL33F303915F03:32:50
38610JUCELIA DA SILVA AMORIM47F404910FSEBO NAS CANELAS03:33:23
39584BEATRIZ GARCEZ DA CRUZ38F303916FSEBO NAS CANELAS03:33:34
40608INDIAMARA GROCHEWSKI RIBAS43F404911FEQUIPE JACAR? DE CONGA03:38:43
41592JAQUELINE DE TOLEDO 37F303917FPAPALEGUAS03:43:50

Geral Masculino 17Km


Cl.Num.NomeId.FaixaCl.Fx.Sx.EquipeTempo
1631ROGERIO SILVESTRIN29M1329-MJUMA RUNNERS 01:19:05
2665RICARDO TOURINHO BERALDI30M3039-MTRC BRASIL01:28:03
3636ADRIANO SCHEUER33M3039-MSPF RUNNING01:33:56
4654JOSMAR DE LIVEIRA36M30391MSUGIRO01:35:02
5655LEOMAR GERGOUT36M30392MTEAM EVOLUTION01:37:42
6682JANI OTACILIO MENDES49M40491MGRUPO QUALITY01:39:22
7679CLAUDINEI METZ DE MELLO 47M40492MLAPATLETAS01:40:07
8626EVANDRO DA LUZ RAMOS28M13291MLAPATLETAS01:41:11
9659MATHEUS VICTOR CORDEIRO30M30393MLOS VAGOS RUNNERS01:41:25
10695PAULO SERGIO ANTUNES DE LIMA42M40493M01:42:33
11624DIEGO PEREIRA ALVES22M13292M4X TEAM01:43:52
12712WALACE TEIXEIRA PASSOS50M50991MKATIA RUSCHEL ASSESSORIA01:44:07
13683JOELSON DA ROSA47M40494MASSOCIA??O COPEL CURITIBA01:46:26
14690MARCOS TAVARES D? SILVA42M40495MBPM01:46:26
15708JOS? RODRIGUES GOMES64M50992MMOVIMENTA PG01:47:34
16672ADILSON APARECIDO PEREIRA48M40496MUBT01:48:34
17640CASSIO ROBERTO CROVADOR 39M30394MCHALLENGE TEAM01:50:07
18627GEOVANI ZANIN28M13293M01:50:35
19642CESAR LOZANO32M30395MLOS VAGOS RUNNERS01:51:17
20652JORGE AUGUSTO DOS SANTOS36M30396MPR410 RUN CLUB01:51:17
21660MICHEL JOSE DEONISIO33M30397MCDA01:54:20
22689MARCO AURELIO CARLESSO43M40497MCHIMARUN01:54:37
23630NYXSON LOPES23M13294MNXN_CWB01:55:22
24692MAURICIO LINHARES49M40498MTHE RUNNING MOMS01:55:27
25686JULIO NOVATO VIEIRA43M40499MCHIMARUN01:55:44
26653JOSE EDUARDO GHENO BECKER31M30398M01:56:11
27707JOS? GON?ALVES DA COSTA63M50993MLAPATLETAS01:56:15
28670WILLIAM MEIRELLES37M30399MMEIRELLES ASS. ESP.01:58:51
29693PATRICE DE ALBUQUERQUE ANDRADE42M404910M01:59:29
30691MARLO CARVALHO40M404911MPAPALEGUAS02:01:51
31647HELBERT TSCHANNERL 34M303910MMEIRELLES ASS. ESP.02:01:56
32633TIAGO GASPAR DOS SANTOS29M13295MCOXARUNNERS02:02:15
33696RAFAEL BEZERRA TORRES43M404912MTRAINER02:03:29
34638ANDRE BRAGA GARCIA37M303911M02:06:22
35702ANTONIO DANIEL LIPIENSKI56M50994MCANYON ADVENTURE02:06:49
36634VINICIUS BERNARDO STDREZK22M13296MCHALLENGE TEAM02:07:29
37666RONALDO ADRIANO MEIRA32M303912MBUSCAP? RUNNERS02:08:00
38663RAFAEL AUGUSTO DA SILVA SANTOS32M303913MCARBONO ASSESSORIA ESPORTIVA02:08:46
39648HELDER BOLLMANN 37M303914MPAPALEGUAS02:09:51
40704GEVERSON CHEQUIM53M50995MTHE RUNNING MOMS02:10:17
41628JONATAS PASTORIO DA SILVA25M13297MLOS VAGOS RUNNERS02:10:24
42673AIRTON VALENTIN BALDISSERA47M404913MPAPALEGUAS02:12:44
43637ALEXANDRE VIDAL39M303915MBPM02:13:27
44643CRISTIANO DA SILVA REZENDE37M303916MARS RUNNING02:13:56
45681GIULIANO ANTONIO MAKIOSZEK45M404914M02:14:16
46706GUSTAVO ANDRADE50M50996MMUTLEY RUNNERS02:17:01
47625EMERSON GUTTEMBERG29M13298MCLAASSEM ASSESSORIA 02:17:16
48658MARIO AUGUSTO BATISTA DOS SANTOS37M303917M02:19:31
49669WALTER PEREIRA DE LIMA38M303918MPAPALEGUAS02:19:35
50662RAFAEL ALMEIDA DE MELLO35M303919MPAPALEGUAS02:19:43
51650JEFFERSON LUIZ ALVES SIQUEIRA33M303920M02:21:21
52685JOSIMAR LOPES DE SOUZA48M404915MARS RUNNING02:22:23
53657LUIZ RODOLFO AMEND ARIELLO32M303921MEKIP DE 5?02:23:58
54676ALEXANDRE MENNA BARRETO CORDEIRO41M404916MBPM02:24:46
55674ALAN ROGERIO VENDRAME DE SOUZA41M404917MBPM02:24:47
56710PAULO RAMOS50M50997MASSOCIA??O COPEL CURITIBA02:26:33
57671ADALBERTO DE CASTRO VIANNA JUNIOR44M404918MBPM02:27:15
58687JULIO YAMAMOTO45M404919MMINORU02:29:40
59641CESAR ALAN LOURES BASTOS32M303922M2 CS SPORTING 02:32:04
60661OTOMAR STAATS38M303923MPAPALEGUAS02:37:04
61711SERGIO CHULIK51M50998MSVD TRANSPORTES02:42:07
62651JOAO EDUARDO FRANCO35M303924MNCB02:42:16
63629MICHEL CARLOS SILVEIRA25M13299M02:44:30
64639BRUNO MAGALH?ES 37M303925MFAMILY FITNESS CURITIBA02:46:13
65709LINO ALVES DO NASCIMENTO50M50999MEQUIPE MINORU02:47:09
66644DANIEL ALVES DE SOUZA37M303926M02:50:39
67632THIAGO FERNANDES PEREIRA27M132910M02:50:48
68698RUDNEI PIEL48M404920MSTAMPAFERRUN02:52:46
69680FABIO EMANUEL FARIA40M404921M02:53:41
70635VINICIUS RAMOS PACHOLOK22M132911M02:57:33
71675ALESSANDRO MUNIZ46M404922MBPM02:57:47
72664RICARDO PEREIRA DA SILVA38M303927M02:57:57
73688LOEYDERSON DE MEIRA41M404923MDX ASSESSORIA ESPORTIVA03:03:41
74646GUILHERME SIMI MULLER32M303928MANA & GUI03:04:51
75667SERGIO DOS SANTOS35M303929M03:04:59
76677ANDR? LUIZ GIRARDI40M404924MCARBONO ASSESSORIA ESPORTIVA03:13:07
77699SERGIO LUIS BRACKMANN49M404925M03:16:09
78703EDUARDO BOLDUAN53M509910MBOLDUAN03:34:54
79678ANTONIO DOS SANTOS RIBAS JUNIOR40M404926MEQUIPE JACAR? DE CONGA03:38:43
80700S?RGIO ROBERTO SAGAZ40M404927MPAPALEGUAS03:43:50

Para dúvidas, sugestões ou reclamações entre em  contato conosco.

Siga-nos no Facebook: ChronoMAX Brasil… Curta nossa página!!! :)

RESULTADOS ATUALIZADOS 09/04/2017 ÀS 15:15HS

Matriz Curitiba
Rua Cel. José Leal Fontoura, 141, Xaxim, Curitiba – PR

E-mail: chronomax@chronomax.com.br

Telefones:
41 3779.0706 / 41 9151.0706 (Vivo)

Atendimento Whatsapp
41 9151.0706